sensor_id;sensor_type;location;lat;lon;timestamp;P1;durP1;ratioP1;P2;durP2;ratioP2
32946;SDS011;54465;51.230;22.504;2023-04-05T00:02:11;7.78;;;3.58;;
32946;SDS011;54465;51.230;22.504;2023-04-05T00:07:13;10.73;;;3.78;;
32946;SDS011;54465;51.230;22.504;2023-04-05T00:12:13;6.75;;;4.05;;
32946;SDS011;54465;51.230;22.504;2023-04-05T00:17:14;6.35;;;3.28;;
32946;SDS011;54465;51.230;22.504;2023-04-05T00:22:14;9.20;;;3.72;;
32946;SDS011;54465;51.230;22.504;2023-04-05T00:27:19;11.15;;;4.13;;
32946;SDS011;54465;51.230;22.504;2023-04-05T00:32:19;7.90;;;3.13;;
32946;SDS011;54465;51.230;22.504;2023-04-05T00:37:20;8.70;;;4.32;;
32946;SDS011;54465;51.230;22.504;2023-04-05T00:42:21;6.95;;;3.90;;
32946;SDS011;54465;51.230;22.504;2023-04-05T00:47:21;11.93;;;3.97;;
32946;SDS011;54465;51.230;22.504;2023-04-05T00:52:22;9.90;;;4.35;;
32946;SDS011;54465;51.230;22.504;2023-04-05T00:57:23;7.32;;;4.70;;
32946;SDS011;54465;51.230;22.504;2023-04-05T01:02:27;5.57;;;3.22;;
32946;SDS011;54465;51.230;22.504;2023-04-05T01:07:42;7.50;;;3.67;;
32946;SDS011;54465;51.230;22.504;2023-04-05T01:12:52;8.70;;;4.13;;
32946;SDS011;54465;51.230;22.504;2023-04-05T01:17:53;6.55;;;3.40;;
32946;SDS011;54465;51.230;22.504;2023-04-05T01:34:01;8.60;;;3.95;;
32946;SDS011;54465;51.230;22.504;2023-04-05T01:39:10;9.48;;;4.30;;
32946;SDS011;54465;51.230;22.504;2023-04-05T01:44:12;8.68;;;4.05;;
32946;SDS011;54465;51.230;22.504;2023-04-05T01:49:12;7.97;;;3.97;;
32946;SDS011;54465;51.230;22.504;2023-04-05T01:54:14;8.63;;;4.35;;
32946;SDS011;54465;51.230;22.504;2023-04-05T01:59:16;6.03;;;3.42;;
32946;SDS011;54465;51.230;22.504;2023-04-05T02:04:17;5.82;;;4.07;;
32946;SDS011;54465;51.230;22.504;2023-04-05T02:09:17;5.70;;;3.08;;
32946;SDS011;54465;51.230;22.504;2023-04-05T02:14:19;4.78;;;2.75;;
32946;SDS011;54465;51.230;22.504;2023-04-05T02:19:20;6.25;;;2.72;;
32946;SDS011;54465;51.230;22.504;2023-04-05T02:24:22;5.00;;;2.50;;
32946;SDS011;54465;51.230;22.504;2023-04-05T02:29:22;6.70;;;3.20;;
32946;SDS011;54465;51.230;22.504;2023-04-05T02:34:23;6.20;;;3.63;;
32946;SDS011;54465;51.230;22.504;2023-04-05T02:39:23;4.95;;;3.30;;
32946;SDS011;54465;51.230;22.504;2023-04-05T02:44:24;5.95;;;3.95;;
32946;SDS011;54465;51.230;22.504;2023-04-05T02:49:26;9.27;;;3.72;;
32946;SDS011;54465;51.230;22.504;2023-04-05T02:54:29;10.68;;;3.53;;
32946;SDS011;54465;51.230;22.504;2023-04-05T02:59:34;8.25;;;3.78;;
32946;SDS011;54465;51.230;22.504;2023-04-05T03:04:36;6.43;;;4.00;;
32946;SDS011;54465;51.230;22.504;2023-04-05T03:09:38;7.95;;;3.85;;
32946;SDS011;54465;51.230;22.504;2023-04-05T03:14:42;9.10;;;4.18;;
32946;SDS011;54465;51.230;22.504;2023-04-05T03:19:46;6.63;;;3.95;;
32946;SDS011;54465;51.230;22.504;2023-04-05T03:24:52;10.93;;;5.00;;
32946;SDS011;54465;51.230;22.504;2023-04-05T03:29:54;13.45;;;4.30;;
32946;SDS011;54465;51.230;22.504;2023-04-05T03:34:55;7.60;;;3.53;;
32946;SDS011;54465;51.230;22.504;2023-04-05T03:39:56;10.35;;;5.00;;
32946;SDS011;54465;51.230;22.504;2023-04-05T03:44:57;8.30;;;3.92;;
32946;SDS011;54465;51.230;22.504;2023-04-05T03:49:59;6.97;;;4.15;;
32946;SDS011;54465;51.230;22.504;2023-04-05T03:55:01;9.20;;;3.90;;
32946;SDS011;54465;51.230;22.504;2023-04-05T04:00:05;6.65;;;3.70;;
32946;SDS011;54465;51.230;22.504;2023-04-05T04:05:16;6.65;;;3.40;;
32946;SDS011;54465;51.230;22.504;2023-04-05T04:10:19;7.75;;;3.72;;
32946;SDS011;54465;51.230;22.504;2023-04-05T04:15:24;10.95;;;4.30;;
32946;SDS011;54465;51.230;22.504;2023-04-05T04:20:42;11.35;;;3.50;;
32946;SDS011;54465;51.230;22.504;2023-04-05T04:26:21;4.22;;;3.03;;
32946;SDS011;54465;51.230;22.504;2023-04-05T04:31:44;8.60;;;3.47;;
32946;SDS011;54465;51.230;22.504;2023-04-05T04:37:05;8.60;;;3.63;;
32946;SDS011;54465;51.230;22.504;2023-04-05T04:42:21;5.90;;;4.00;;
32946;SDS011;54465;51.230;22.504;2023-04-05T04:48:01;4.95;;;3.20;;
32946;SDS011;54465;51.230;22.504;2023-04-05T04:53:26;7.88;;;3.88;;
32946;SDS011;54465;51.230;22.504;2023-04-05T04:58:28;5.75;;;3.22;;
32946;SDS011;54465;51.230;22.504;2023-04-05T05:03:36;5.32;;;3.33;;
32946;SDS011;54465;51.230;22.504;2023-04-05T05:08:38;4.97;;;2.88;;
32946;SDS011;54465;51.230;22.504;2023-04-05T05:13:38;6.90;;;3.58;;
32946;SDS011;54465;51.230;22.504;2023-04-05T05:18:39;5.00;;;3.40;;
32946;SDS011;54465;51.230;22.504;2023-04-05T05:23:40;5.68;;;3.00;;
32946;SDS011;54465;51.230;22.504;2023-04-05T05:28:41;7.80;;;3.45;;
32946;SDS011;54465;51.230;22.504;2023-04-05T05:33:42;6.32;;;3.13;;
32946;SDS011;54465;51.230;22.504;2023-04-05T05:38:44;5.50;;;3.60;;
32946;SDS011;54465;51.230;22.504;2023-04-05T05:43:45;7.32;;;3.38;;
32946;SDS011;54465;51.230;22.504;2023-04-05T05:48:45;5.95;;;3.88;;
32946;SDS011;54465;51.230;22.504;2023-04-05T05:53:46;9.38;;;3.67;;
32946;SDS011;54465;51.230;22.504;2023-04-05T05:58:47;9.98;;;3.95;;
32946;SDS011;54465;51.230;22.504;2023-04-05T06:03:47;11.95;;;3.70;;
32946;SDS011;54465;51.230;22.504;2023-04-05T06:08:49;7.97;;;3.83;;
32946;SDS011;54465;51.230;22.504;2023-04-05T06:13:50;9.43;;;3.85;;
32946;SDS011;54465;51.230;22.504;2023-04-05T06:18:51;9.80;;;3.78;;
32946;SDS011;54465;51.230;22.504;2023-04-05T06:23:54;7.88;;;3.88;;
32946;SDS011;54465;51.230;22.504;2023-04-05T06:28:55;8.75;;;4.07;;
32946;SDS011;54465;51.230;22.504;2023-04-05T06:33:56;11.75;;;5.47;;
32946;SDS011;54465;51.230;22.504;2023-04-05T06:38:56;10.98;;;5.30;;
32946;SDS011;54465;51.230;22.504;2023-04-05T06:43:57;9.98;;;4.78;;
32946;SDS011;54465;51.230;22.504;2023-04-05T06:48:57;8.63;;;4.35;;
32946;SDS011;54465;51.230;22.504;2023-04-05T06:53:58;7.93;;;4.53;;
32946;SDS011;54465;51.230;22.504;2023-04-05T06:59:00;8.70;;;4.43;;
32946;SDS011;54465;51.230;22.504;2023-04-05T07:04:01;8.35;;;3.65;;
32946;SDS011;54465;51.230;22.504;2023-04-05T07:09:02;8.07;;;3.65;;
32946;SDS011;54465;51.230;22.504;2023-04-05T07:14:03;6.47;;;3.83;;
32946;SDS011;54465;51.230;22.504;2023-04-05T07:19:03;7.45;;;3.72;;
32946;SDS011;54465;51.230;22.504;2023-04-05T07:24:05;8.88;;;3.80;;
32946;SDS011;54465;51.230;22.504;2023-04-05T07:29:06;6.63;;;4.03;;
32946;SDS011;54465;51.230;22.504;2023-04-05T07:34:07;5.57;;;3.50;;
32946;SDS011;54465;51.230;22.504;2023-04-05T07:39:07;7.28;;;3.83;;
32946;SDS011;54465;51.230;22.504;2023-04-05T07:44:08;7.22;;;4.00;;
32946;SDS011;54465;51.230;22.504;2023-04-05T07:49:10;6.35;;;3.75;;
32946;SDS011;54465;51.230;22.504;2023-04-05T07:54:10;8.70;;;4.13;;
32946;SDS011;54465;51.230;22.504;2023-04-05T07:59:11;5.22;;;3.65;;
32946;SDS011;54465;51.230;22.504;2023-04-05T08:04:12;5.78;;;3.30;;
32946;SDS011;54465;51.230;22.504;2023-04-05T08:09:12;8.20;;;3.83;;
32946;SDS011;54465;51.230;22.504;2023-04-05T08:14:13;4.82;;;3.08;;
32946;SDS011;54465;51.230;22.504;2023-04-05T08:19:13;7.40;;;4.25;;
32946;SDS011;54465;51.230;22.504;2023-04-05T08:24:14;7.07;;;4.18;;
32946;SDS011;54465;51.230;22.504;2023-04-05T08:29:14;8.20;;;4.20;;
32946;SDS011;54465;51.230;22.504;2023-04-05T08:34:15;9.43;;;3.85;;
32946;SDS011;54465;51.230;22.504;2023-04-05T08:39:16;7.10;;;3.58;;
32946;SDS011;54465;51.230;22.504;2023-04-05T08:44:16;10.25;;;2.95;;
32946;SDS011;54465;51.230;22.504;2023-04-05T08:49:17;4.65;;;3.45;;
32946;SDS011;54465;51.230;22.504;2023-04-05T08:54:18;9.02;;;3.95;;
32946;SDS011;54465;51.230;22.504;2023-04-05T08:59:18;6.25;;;3.85;;
32946;SDS011;54465;51.230;22.504;2023-04-05T09:04:20;8.55;;;3.90;;
32946;SDS011;54465;51.230;22.504;2023-04-05T09:09:22;8.82;;;4.22;;
32946;SDS011;54465;51.230;22.504;2023-04-05T09:14:23;5.18;;;3.35;;
32946;SDS011;54465;51.230;22.504;2023-04-05T09:19:24;7.57;;;3.63;;
32946;SDS011;54465;51.230;22.504;2023-04-05T09:24:32;8.93;;;3.88;;
32946;SDS011;54465;51.230;22.504;2023-04-05T09:29:41;6.10;;;3.95;;
32946;SDS011;54465;51.230;22.504;2023-04-05T09:34:43;6.07;;;3.53;;
32946;SDS011;54465;51.230;22.504;2023-04-05T09:40:01;8.23;;;4.63;;
32946;SDS011;54465;51.230;22.504;2023-04-05T09:45:03;6.72;;;4.15;;
32946;SDS011;54465;51.230;22.504;2023-04-05T09:50:19;8.57;;;3.25;;
32946;SDS011;54465;51.230;22.504;2023-04-05T09:55:26;5.60;;;2.97;;
32946;SDS011;54465;51.230;22.504;2023-04-05T10:00:28;5.25;;;3.10;;
32946;SDS011;54465;51.230;22.504;2023-04-05T10:05:28;5.07;;;2.40;;
32946;SDS011;54465;51.230;22.504;2023-04-05T10:10:29;3.88;;;2.30;;
32946;SDS011;54465;51.230;22.504;2023-04-05T10:15:30;3.63;;;2.28;;
32946;SDS011;54465;51.230;22.504;2023-04-05T10:20:32;4.13;;;2.35;;
32946;SDS011;54465;51.230;22.504;2023-04-05T10:30:50;3.40;;;1.85;;
32946;SDS011;54465;51.230;22.504;2023-04-05T10:41:15;4.30;;;1.92;;
32946;SDS011;54465;51.230;22.504;2023-04-05T10:46:18;4.45;;;2.80;;
32946;SDS011;54465;51.230;22.504;2023-04-05T10:51:22;1.85;;;1.55;;
32946;SDS011;54465;51.230;22.504;2023-04-05T10:56:23;3.08;;;1.90;;
32946;SDS011;54465;51.230;22.504;2023-04-05T11:01:24;4.43;;;2.33;;
32946;SDS011;54465;51.230;22.504;2023-04-05T11:11:30;4.53;;;1.88;;
32946;SDS011;54465;51.230;22.504;2023-04-05T11:16:38;5.95;;;2.25;;
32946;SDS011;54465;51.230;22.504;2023-04-05T11:21:39;5.70;;;1.63;;
32946;SDS011;54465;51.230;22.504;2023-04-05T11:31:59;4.38;;;1.63;;
32946;SDS011;54465;51.230;22.504;2023-04-05T11:37:00;3.78;;;1.92;;
32946;SDS011;54465;51.230;22.504;2023-04-05T11:42:04;6.05;;;2.03;;
32946;SDS011;54465;51.230;22.504;2023-04-05T11:47:06;2.60;;;1.73;;
32946;SDS011;54465;51.230;22.504;2023-04-05T11:57:12;2.33;;;1.75;;
32946;SDS011;54465;51.230;22.504;2023-04-05T12:02:14;2.97;;;1.48;;
32946;SDS011;54465;51.230;22.504;2023-04-05T12:07:15;5.40;;;2.08;;
32946;SDS011;54465;51.230;22.504;2023-04-05T12:12:17;2.92;;;1.50;;
32946;SDS011;54465;51.230;22.504;2023-04-05T12:17:17;3.03;;;1.13;;
32946;SDS011;54465;51.230;22.504;2023-04-05T12:22:18;2.15;;;1.50;;
32946;SDS011;54465;51.230;22.504;2023-04-05T12:27:18;2.28;;;1.50;;
32946;SDS011;54465;51.230;22.504;2023-04-05T12:32:19;3.42;;;1.50;;
32946;SDS011;54465;51.230;22.504;2023-04-05T12:37:20;2.45;;;1.73;;
32946;SDS011;54465;51.230;22.504;2023-04-05T12:42:21;2.85;;;1.83;;
32946;SDS011;54465;51.230;22.504;2023-04-05T12:47:21;3.13;;;1.70;;
32946;SDS011;54465;51.230;22.504;2023-04-05T12:52:25;3.70;;;2.25;;
32946;SDS011;54465;51.230;22.504;2023-04-05T12:57:30;2.88;;;1.65;;
32946;SDS011;54465;51.230;22.504;2023-04-05T13:02:30;2.35;;;1.45;;
32946;SDS011;54465;51.230;22.504;2023-04-05T13:07:31;3.60;;;1.55;;
32946;SDS011;54465;51.230;22.504;2023-04-05T13:12:31;3.78;;;1.83;;
32946;SDS011;54465;51.230;22.504;2023-04-05T13:17:32;6.93;;;2.20;;
32946;SDS011;54465;51.230;22.504;2023-04-05T13:22:32;3.35;;;1.50;;
32946;SDS011;54465;51.230;22.504;2023-04-05T13:27:33;2.38;;;1.48;;
32946;SDS011;54465;51.230;22.504;2023-04-05T13:32:33;3.28;;;1.58;;
32946;SDS011;54465;51.230;22.504;2023-04-05T13:37:34;2.00;;;1.08;;
32946;SDS011;54465;51.230;22.504;2023-04-05T13:42:34;2.38;;;1.60;;
32946;SDS011;54465;51.230;22.504;2023-04-05T13:47:35;2.15;;;1.40;;
32946;SDS011;54465;51.230;22.504;2023-04-05T13:52:35;1.65;;;1.10;;
32946;SDS011;54465;51.230;22.504;2023-04-05T13:57:36;3.25;;;1.60;;
32946;SDS011;54465;51.230;22.504;2023-04-05T14:02:37;1.60;;;1.25;;
32946;SDS011;54465;51.230;22.504;2023-04-05T14:07:38;5.30;;;1.60;;
32946;SDS011;54465;51.230;22.504;2023-04-05T14:12:38;3.08;;;1.48;;
32946;SDS011;54465;51.230;22.504;2023-04-05T14:17:39;3.72;;;1.55;;
32946;SDS011;54465;51.230;22.504;2023-04-05T14:22:40;1.80;;;1.48;;
32946;SDS011;54465;51.230;22.504;2023-04-05T14:27:40;5.53;;;1.77;;
32946;SDS011;54465;51.230;22.504;2023-04-05T14:32:41;2.45;;;1.40;;
32946;SDS011;54465;51.230;22.504;2023-04-05T14:37:42;2.95;;;1.70;;
32946;SDS011;54465;51.230;22.504;2023-04-05T14:42:43;3.00;;;1.70;;
32946;SDS011;54465;51.230;22.504;2023-04-05T14:47:43;2.28;;;1.60;;
32946;SDS011;54465;51.230;22.504;2023-04-05T14:52:44;4.68;;;1.90;;
32946;SDS011;54465;51.230;22.504;2023-04-05T14:57:45;2.97;;;2.35;;
32946;SDS011;54465;51.230;22.504;2023-04-05T15:02:45;3.75;;;1.73;;
32946;SDS011;54465;51.230;22.504;2023-04-05T15:07:46;3.35;;;1.65;;
32946;SDS011;54465;51.230;22.504;2023-04-05T15:12:46;2.97;;;1.90;;
32946;SDS011;54465;51.230;22.504;2023-04-05T15:17:47;4.25;;;2.00;;
32946;SDS011;54465;51.230;22.504;2023-04-05T15:22:47;2.45;;;1.30;;
32946;SDS011;54465;51.230;22.504;2023-04-05T15:27:48;2.55;;;1.30;;
32946;SDS011;54465;51.230;22.504;2023-04-05T15:32:48;5.53;;;1.70;;
32946;SDS011;54465;51.230;22.504;2023-04-05T15:37:48;3.22;;;1.42;;
32946;SDS011;54465;51.230;22.504;2023-04-05T15:42:49;4.55;;;2.00;;
32946;SDS011;54465;51.230;22.504;2023-04-05T15:47:50;3.40;;;1.63;;
32946;SDS011;54465;51.230;22.504;2023-04-05T15:52:50;4.97;;;1.10;;
32946;SDS011;54465;51.230;22.504;2023-04-05T15:57:50;8.48;;;1.98;;
32946;SDS011;54465;51.230;22.504;2023-04-05T16:02:53;2.63;;;1.65;;
32946;SDS011;54465;51.230;22.504;2023-04-05T16:07:57;2.80;;;1.75;;
32946;SDS011;54465;51.230;22.504;2023-04-05T16:12:58;3.72;;;1.88;;
32946;SDS011;54465;51.230;22.504;2023-04-05T16:17:59;5.40;;;2.40;;
32946;SDS011;54465;51.230;22.504;2023-04-05T16:22:59;6.72;;;2.17;;
32946;SDS011;54465;51.230;22.504;2023-04-05T16:28:00;5.07;;;2.47;;
32946;SDS011;54465;51.230;22.504;2023-04-05T16:33:01;4.35;;;2.58;;
32946;SDS011;54465;51.230;22.504;2023-04-05T16:38:01;4.75;;;2.40;;
32946;SDS011;54465;51.230;22.504;2023-04-05T16:43:03;4.97;;;2.55;;
32946;SDS011;54465;51.230;22.504;2023-04-05T16:48:03;5.50;;;2.40;;
32946;SDS011;54465;51.230;22.504;2023-04-05T16:53:04;4.13;;;2.13;;
32946;SDS011;54465;51.230;22.504;2023-04-05T16:58:05;3.22;;;1.90;;
32946;SDS011;54465;51.230;22.504;2023-04-05T17:03:05;6.13;;;2.15;;
32946;SDS011;54465;51.230;22.504;2023-04-05T17:08:06;2.55;;;1.27;;
32946;SDS011;54465;51.230;22.504;2023-04-05T17:13:06;4.57;;;2.10;;
32946;SDS011;54465;51.230;22.504;2023-04-05T17:18:07;5.35;;;2.58;;
32946;SDS011;54465;51.230;22.504;2023-04-05T17:23:08;5.38;;;2.00;;
32946;SDS011;54465;51.230;22.504;2023-04-05T17:28:08;5.97;;;2.92;;
32946;SDS011;54465;51.230;22.504;2023-04-05T17:33:09;3.53;;;1.63;;
32946;SDS011;54465;51.230;22.504;2023-04-05T17:38:09;3.08;;;1.65;;
32946;SDS011;54465;51.230;22.504;2023-04-05T17:43:10;3.25;;;1.63;;
32946;SDS011;54465;51.230;22.504;2023-04-05T17:48:13;3.08;;;1.52;;
32946;SDS011;54465;51.230;22.504;2023-04-05T17:53:14;3.25;;;2.08;;
32946;SDS011;54465;51.230;22.504;2023-04-05T17:58:17;4.45;;;2.42;;
32946;SDS011;54465;51.230;22.504;2023-04-05T18:03:18;5.43;;;2.28;;
32946;SDS011;54465;51.230;22.504;2023-04-05T18:08:19;5.63;;;2.55;;
32946;SDS011;54465;51.230;22.504;2023-04-05T18:13:20;5.88;;;2.30;;
32946;SDS011;54465;51.230;22.504;2023-04-05T18:18:20;4.57;;;2.13;;
32946;SDS011;54465;51.230;22.504;2023-04-05T18:23:21;4.43;;;2.33;;
32946;SDS011;54465;51.230;22.504;2023-04-05T18:28:23;4.38;;;2.28;;
32946;SDS011;54465;51.230;22.504;2023-04-05T18:33:24;6.93;;;2.40;;
32946;SDS011;54465;51.230;22.504;2023-04-05T18:38:24;5.53;;;2.67;;
32946;SDS011;54465;51.230;22.504;2023-04-05T18:43:25;5.55;;;2.75;;
32946;SDS011;54465;51.230;22.504;2023-04-05T18:48:26;10.10;;;2.75;;
32946;SDS011;54465;51.230;22.504;2023-04-05T18:53:26;4.97;;;2.97;;
32946;SDS011;54465;51.230;22.504;2023-04-05T18:58:27;7.97;;;3.78;;
32946;SDS011;54465;51.230;22.504;2023-04-05T19:03:27;9.13;;;3.13;;
32946;SDS011;54465;51.230;22.504;2023-04-05T19:08:28;7.45;;;3.75;;
32946;SDS011;54465;51.230;22.504;2023-04-05T19:13:28;8.32;;;3.20;;
32946;SDS011;54465;51.230;22.504;2023-04-05T19:18:29;7.00;;;3.60;;
32946;SDS011;54465;51.230;22.504;2023-04-05T19:23:30;9.98;;;4.07;;
32946;SDS011;54465;51.230;22.504;2023-04-05T19:28:30;8.77;;;3.40;;
32946;SDS011;54465;51.230;22.504;2023-04-05T19:33:31;9.55;;;3.72;;
32946;SDS011;54465;51.230;22.504;2023-04-05T19:38:31;9.13;;;3.42;;
32946;SDS011;54465;51.230;22.504;2023-04-05T19:43:32;7.60;;;3.22;;
32946;SDS011;54465;51.230;22.504;2023-04-05T19:48:36;7.88;;;3.83;;
32946;SDS011;54465;51.230;22.504;2023-04-05T19:58:41;8.75;;;3.75;;
32946;SDS011;54465;51.230;22.504;2023-04-05T20:03:42;7.07;;;3.40;;
32946;SDS011;54465;51.230;22.504;2023-04-05T20:08:43;7.30;;;3.15;;
32946;SDS011;54465;51.230;22.504;2023-04-05T20:13:48;5.85;;;2.83;;
32946;SDS011;54465;51.230;22.504;2023-04-05T20:18:50;10.73;;;3.67;;
32946;SDS011;54465;51.230;22.504;2023-04-05T20:23:52;7.57;;;3.67;;
32946;SDS011;54465;51.230;22.504;2023-04-05T20:28:53;8.60;;;3.13;;
32946;SDS011;54465;51.230;22.504;2023-04-05T20:34:00;5.93;;;3.17;;
32946;SDS011;54465;51.230;22.504;2023-04-05T20:39:06;7.63;;;3.20;;
32946;SDS011;54465;51.230;22.504;2023-04-05T20:44:07;8.27;;;3.25;;
32946;SDS011;54465;51.230;22.504;2023-04-05T20:49:07;7.95;;;2.92;;
32946;SDS011;54465;51.230;22.504;2023-04-05T20:54:08;7.25;;;3.70;;
32946;SDS011;54465;51.230;22.504;2023-04-05T20:59:09;6.85;;;2.55;;
32946;SDS011;54465;51.230;22.504;2023-04-05T21:04:10;6.88;;;2.40;;
32946;SDS011;54465;51.230;22.504;2023-04-05T21:09:10;4.53;;;2.75;;
32946;SDS011;54465;51.230;22.504;2023-04-05T21:14:11;7.65;;;2.78;;
32946;SDS011;54465;51.230;22.504;2023-04-05T21:19:11;4.72;;;2.38;;
32946;SDS011;54465;51.230;22.504;2023-04-05T21:24:12;6.53;;;2.72;;
32946;SDS011;54465;51.230;22.504;2023-04-05T21:29:12;6.38;;;3.15;;
32946;SDS011;54465;51.230;22.504;2023-04-05T21:34:13;6.40;;;2.97;;
32946;SDS011;54465;51.230;22.504;2023-04-05T21:39:14;5.60;;;3.40;;
32946;SDS011;54465;51.230;22.504;2023-04-05T21:44:14;5.07;;;2.60;;
32946;SDS011;54465;51.230;22.504;2023-04-05T21:49:15;4.70;;;2.22;;
32946;SDS011;54465;51.230;22.504;2023-04-05T21:54:15;4.63;;;2.47;;
32946;SDS011;54465;51.230;22.504;2023-04-05T21:59:16;4.88;;;2.15;;
32946;SDS011;54465;51.230;22.504;2023-04-05T22:04:16;4.03;;;2.47;;
32946;SDS011;54465;51.230;22.504;2023-04-05T22:09:17;7.60;;;2.70;;
32946;SDS011;54465;51.230;22.504;2023-04-05T22:14:17;5.28;;;2.80;;
32946;SDS011;54465;51.230;22.504;2023-04-05T22:19:18;6.25;;;2.33;;
32946;SDS011;54465;51.230;22.504;2023-04-05T22:24:19;5.88;;;2.35;;
32946;SDS011;54465;51.230;22.504;2023-04-05T22:29:19;7.13;;;2.28;;
32946;SDS011;54465;51.230;22.504;2023-04-05T22:34:22;2.97;;;2.38;;
32946;SDS011;54465;51.230;22.504;2023-04-05T22:39:23;7.00;;;2.10;;
32946;SDS011;54465;51.230;22.504;2023-04-05T22:44:23;4.05;;;2.40;;
32946;SDS011;54465;51.230;22.504;2023-04-05T22:49:24;5.68;;;2.10;;
32946;SDS011;54465;51.230;22.504;2023-04-05T22:54:25;4.25;;;2.15;;
32946;SDS011;54465;51.230;22.504;2023-04-05T22:59:25;5.75;;;3.03;;
32946;SDS011;54465;51.230;22.504;2023-04-05T23:04:26;5.47;;;2.40;;
32946;SDS011;54465;51.230;22.504;2023-04-05T23:09:26;4.38;;;2.38;;
32946;SDS011;54465;51.230;22.504;2023-04-05T23:14:27;7.22;;;2.15;;
32946;SDS011;54465;51.230;22.504;2023-04-05T23:19:27;6.03;;;1.90;;
32946;SDS011;54465;51.230;22.504;2023-04-05T23:24:28;5.68;;;3.10;;
32946;SDS011;54465;51.230;22.504;2023-04-05T23:29:28;7.20;;;2.40;;
32946;SDS011;54465;51.230;22.504;2023-04-05T23:34:29;3.33;;;2.00;;
32946;SDS011;54465;51.230;22.504;2023-04-05T23:39:30;4.22;;;2.33;;
32946;SDS011;54465;51.230;22.504;2023-04-05T23:44:30;7.15;;;2.35;;
32946;SDS011;54465;51.230;22.504;2023-04-05T23:49:31;3.28;;;2.05;;
32946;SDS011;54465;51.230;22.504;2023-04-05T23:54:31;4.70;;;2.17;;
32946;SDS011;54465;51.230;22.504;2023-04-05T23:59:32;5.28;;;1.98;;
